sensor_id;sensor_type;location;lat;lon;timestamp;pressure;altitude;pressure_sealevel;temperature;humidity
83492;BME280;73661;56.120;12.302;2024-02-23T00:00:05;97542.41;;;9.26;78.92
83492;BME280;73661;56.120;12.302;2024-02-23T00:02:32;97547.91;;;9.62;78.14
83492;BME280;73661;56.120;12.302;2024-02-23T00:04:57;97535.88;;;9.80;77.87
83492;BME280;73661;56.120;12.302;2024-02-23T00:07:23;97521.97;;;9.17;78.60
83492;BME280;73661;56.120;12.302;2024-02-23T00:09:49;97510.25;;;9.49;77.82
83492;BME280;73661;56.120;12.302;2024-02-23T00:12:15;97512.09;;;10.08;76.17
83492;BME280;73661;56.120;12.302;2024-02-23T00:14:40;97503.72;;;9.81;75.83
83492;BME280;73661;56.120;12.302;2024-02-23T00:17:06;97505.00;;;9.50;77.99
83492;BME280;73661;56.120;12.302;2024-02-23T00:19:32;97502.94;;;9.15;78.30
83492;BME280;73661;56.120;12.302;2024-02-23T00:21:58;97484.31;;;9.88;76.58
83492;BME280;73661;56.120;12.302;2024-02-23T00:24:27;97474.28;;;9.59;76.78
83492;BME280;73661;56.120;12.302;2024-02-23T00:26:54;97469.56;;;9.26;78.31
83492;BME280;73661;56.120;12.302;2024-02-23T00:29:19;97469.34;;;9.73;76.63
83492;BME280;73661;56.120;12.302;2024-02-23T00:31:46;97453.72;;;9.73;76.73
83492;BME280;73661;56.120;12.302;2024-02-23T00:34:12;97448.09;;;9.82;75.08
83492;BME280;73661;56.120;12.302;2024-02-23T00:36:40;97431.69;;;9.39;77.21
83492;BME280;73661;56.120;12.302;2024-02-23T00:39:07;97438.34;;;9.67;76.68
83492;BME280;73661;56.120;12.302;2024-02-23T00:41:33;97441.34;;;9.78;76.80
83492;BME280;73661;56.120;12.302;2024-02-23T00:43:59;97427.38;;;9.99;75.27
83492;BME280;73661;56.120;12.302;2024-02-23T00:46:25;97422.00;;;10.42;74.54
83492;BME280;73661;56.120;12.302;2024-02-23T00:48:51;97421.53;;;9.74;76.51
83492;BME280;73661;56.120;12.302;2024-02-23T00:51:16;97428.78;;;10.46;74.29
83492;BME280;73661;56.120;12.302;2024-02-23T00:53:42;97432.00;;;10.70;73.04
83492;BME280;73661;56.120;12.302;2024-02-23T00:56:08;97435.25;;;10.56;74.45
83492;BME280;73661;56.120;12.302;2024-02-23T00:58:33;97436.13;;;10.38;74.62
83492;BME280;73661;56.120;12.302;2024-02-23T01:01:00;97423.78;;;11.32;72.65
83492;BME280;73661;56.120;12.302;2024-02-23T01:03:26;97413.03;;;10.30;75.92
83492;BME280;73661;56.120;12.302;2024-02-23T01:05:51;97404.75;;;10.94;73.43
83492;BME280;73661;56.120;12.302;2024-02-23T01:08:17;97419.09;;;11.91;70.74
83492;BME280;73661;56.120;12.302;2024-02-23T01:10:44;97398.31;;;11.01;73.48
83492;BME280;73661;56.120;12.302;2024-02-23T01:13:09;97392.91;;;12.08;70.86
83492;BME280;73661;56.120;12.302;2024-02-23T01:15:35;97392.34;;;12.19;70.25
83492;BME280;73661;56.120;12.302;2024-02-23T01:18:01;97387.47;;;12.92;69.14
83492;BME280;73661;56.120;12.302;2024-02-23T01:20:27;97373.13;;;12.67;69.10
83492;BME280;73661;56.120;12.302;2024-02-23T01:22:53;97372.44;;;12.48;70.68
83492;BME280;73661;56.120;12.302;2024-02-23T01:25:18;97361.47;;;12.41;69.71
83492;BME280;73661;56.120;12.302;2024-02-23T01:27:44;97358.53;;;13.09;68.04
83492;BME280;73661;56.120;12.302;2024-02-23T01:30:10;97357.75;;;12.30;70.25
83492;BME280;73661;56.120;12.302;2024-02-23T01:32:36;97355.13;;;12.61;69.67
83492;BME280;73661;56.120;12.302;2024-02-23T01:35:07;97361.72;;;12.68;69.37
83492;BME280;73661;56.120;12.302;2024-02-23T01:37:34;97347.75;;;12.83;68.59
83492;BME280;73661;56.120;12.302;2024-02-23T01:40:00;97339.53;;;12.60;68.92
83492;BME280;73661;56.120;12.302;2024-02-23T01:42:26;97344.06;;;12.88;68.05
83492;BME280;73661;56.120;12.302;2024-02-23T01:44:52;97339.50;;;12.91;68.81
83492;BME280;73661;56.120;12.302;2024-02-23T01:47:18;97335.78;;;13.09;68.12
83492;BME280;73661;56.120;12.302;2024-02-23T01:49:47;97333.91;;;13.27;66.91
83492;BME280;73661;56.120;12.302;2024-02-23T01:52:14;97318.69;;;13.04;67.42
83492;BME280;73661;56.120;12.302;2024-02-23T01:54:41;97317.53;;;12.94;68.03
83492;BME280;73661;56.120;12.302;2024-02-23T01:57:08;97328.91;;;13.39;66.78
83492;BME280;73661;56.120;12.302;2024-02-23T01:59:36;97328.94;;;13.23;66.88
83492;BME280;73661;56.120;12.302;2024-02-23T02:02:04;97323.69;;;12.47;68.65
83492;BME280;73661;56.120;12.302;2024-02-23T02:04:30;97328.34;;;12.88;67.00
83492;BME280;73661;56.120;12.302;2024-02-23T02:06:57;97330.97;;;13.48;66.20
83492;BME280;73661;56.120;12.302;2024-02-23T02:09:23;97330.03;;;13.77;64.57
83492;BME280;73661;56.120;12.302;2024-02-23T02:11:50;97327.16;;;13.23;66.04
83492;BME280;73661;56.120;12.302;2024-02-23T02:14:16;97336.41;;;13.45;66.00
83492;BME280;73661;56.120;12.302;2024-02-23T02:16:43;97331.69;;;13.50;64.89
83492;BME280;73661;56.120;12.302;2024-02-23T02:19:13;97341.13;;;13.08;67.05
83492;BME280;73661;56.120;12.302;2024-02-23T02:21:40;97347.53;;;13.48;65.40
83492;BME280;73661;56.120;12.302;2024-02-23T02:24:07;97344.50;;;13.10;66.23
83492;BME280;73661;56.120;12.302;2024-02-23T02:26:35;97347.22;;;13.24;65.78
83492;BME280;73661;56.120;12.302;2024-02-23T02:29:01;97374.88;;;13.28;64.76
83492;BME280;73661;56.120;12.302;2024-02-23T02:31:27;97351.44;;;13.11;65.05
83492;BME280;73661;56.120;12.302;2024-02-23T02:33:53;97336.59;;;12.96;62.82
83492;BME280;73661;56.120;12.302;2024-02-23T02:36:18;97358.66;;;13.38;61.63
83492;BME280;73661;56.120;12.302;2024-02-23T02:38:44;97349.72;;;12.80;61.29
83492;BME280;73661;56.120;12.302;2024-02-23T02:41:10;97357.22;;;12.86;60.49
83492;BME280;73661;56.120;12.302;2024-02-23T02:43:35;97360.81;;;12.38;60.58
83492;BME280;73661;56.120;12.302;2024-02-23T02:46:01;97378.47;;;12.17;59.69
83492;BME280;73661;56.120;12.302;2024-02-23T02:48:27;97371.84;;;12.43;58.81
83492;BME280;73661;56.120;12.302;2024-02-23T02:50:53;97362.47;;;12.54;58.79
83492;BME280;73661;56.120;12.302;2024-02-23T02:53:19;97368.47;;;12.25;58.80
83492;BME280;73661;56.120;12.302;2024-02-23T02:55:45;97370.94;;;12.44;57.35
83492;BME280;73661;56.120;12.302;2024-02-23T02:58:14;97380.50;;;13.06;56.11
83492;BME280;73661;56.120;12.302;2024-02-23T03:00:40;97378.97;;;11.92;57.59
83492;BME280;73661;56.120;12.302;2024-02-23T03:03:06;97390.47;;;12.37;56.75
83492;BME280;73661;56.120;12.302;2024-02-23T03:05:32;97397.69;;;12.00;57.02
83492;BME280;73661;56.120;12.302;2024-02-23T03:07:57;97394.03;;;11.35;56.98
83492;BME280;73661;56.120;12.302;2024-02-23T03:10:23;97426.31;;;11.51;56.96
83492;BME280;73661;56.120;12.302;2024-02-23T03:12:49;97420.09;;;11.19;57.64
83492;BME280;73661;56.120;12.302;2024-02-23T03:15:15;97417.03;;;10.92;57.23
83492;BME280;73661;56.120;12.302;2024-02-23T03:17:40;97439.78;;;10.90;57.92
83492;BME280;73661;56.120;12.302;2024-02-23T03:20:06;97442.19;;;11.12;57.29
83492;BME280;73661;56.120;12.302;2024-02-23T03:22:37;97462.50;;;11.05;57.29
83492;BME280;73661;56.120;12.302;2024-02-23T03:25:03;97480.78;;;11.05;56.72
83492;BME280;73661;56.120;12.302;2024-02-23T03:27:36;97483.75;;;11.34;55.76
83492;BME280;73661;56.120;12.302;2024-02-23T03:30:04;97471.94;;;11.44;55.18
83492;BME280;73661;56.120;12.302;2024-02-23T03:32:30;97473.13;;;11.19;56.90
83492;BME280;73661;56.120;12.302;2024-02-23T03:35:03;97489.97;;;10.57;56.42
83492;BME280;73661;56.120;12.302;2024-02-23T03:37:29;97509.84;;;10.79;56.15
83492;BME280;73661;56.120;12.302;2024-02-23T03:39:55;97529.81;;;10.80;54.93
83492;BME280;73661;56.120;12.302;2024-02-23T03:42:20;97515.53;;;9.90;56.38
83492;BME280;73661;56.120;12.302;2024-02-23T03:44:46;97524.19;;;9.90;56.30
83492;BME280;73661;56.120;12.302;2024-02-23T03:47:12;97539.84;;;10.31;55.56
83492;BME280;73661;56.120;12.302;2024-02-23T03:49:38;97529.91;;;10.19;54.96
83492;BME280;73661;56.120;12.302;2024-02-23T03:52:05;97560.91;;;10.04;55.40
83492;BME280;73661;56.120;12.302;2024-02-23T03:54:30;97563.72;;;10.00;55.38
83492;BME280;73661;56.120;12.302;2024-02-23T03:56:57;97572.25;;;9.83;56.10
83492;BME280;73661;56.120;12.302;2024-02-23T03:59:23;97572.41;;;9.78;54.82
83492;BME280;73661;56.120;12.302;2024-02-23T04:01:49;97577.19;;;10.09;55.58
83492;BME280;73661;56.120;12.302;2024-02-23T04:04:15;97583.78;;;9.76;56.67
83492;BME280;73661;56.120;12.302;2024-02-23T04:06:41;97570.63;;;9.59;55.93
83492;BME280;73661;56.120;12.302;2024-02-23T04:09:06;97572.44;;;9.57;56.19
83492;BME280;73661;56.120;12.302;2024-02-23T04:11:34;97592.59;;;10.36;54.30
83492;BME280;73661;56.120;12.302;2024-02-23T04:14:00;97598.88;;;9.68;55.88
83492;BME280;73661;56.120;12.302;2024-02-23T04:16:27;97603.59;;;10.22;55.12
83492;BME280;73661;56.120;12.302;2024-02-23T04:18:54;97633.03;;;9.38;56.82
83492;BME280;73661;56.120;12.302;2024-02-23T04:21:20;97648.59;;;9.62;55.87
83492;BME280;73661;56.120;12.302;2024-02-23T04:23:46;97622.53;;;10.27;55.81
83492;BME280;73661;56.120;12.302;2024-02-23T04:26:12;97642.16;;;9.72;56.34
83492;BME280;73661;56.120;12.302;2024-02-23T04:28:40;97660.38;;;9.72;56.19
83492;BME280;73661;56.120;12.302;2024-02-23T04:31:05;97691.19;;;9.82;56.02
83492;BME280;73661;56.120;12.302;2024-02-23T04:33:31;97681.75;;;9.35;57.38
83492;BME280;73661;56.120;12.302;2024-02-23T04:35:58;97688.94;;;9.51;56.79
83492;BME280;73661;56.120;12.302;2024-02-23T04:38:24;97707.94;;;9.53;57.98
83492;BME280;73661;56.120;12.302;2024-02-23T04:40:50;97714.41;;;10.10;55.67
83492;BME280;73661;56.120;12.302;2024-02-23T04:43:15;97692.06;;;9.38;56.60
83492;BME280;73661;56.120;12.302;2024-02-23T04:45:41;97723.56;;;9.53;56.46
83492;BME280;73661;56.120;12.302;2024-02-23T04:48:07;97731.44;;;9.28;56.75
83492;BME280;73661;56.120;12.302;2024-02-23T04:50:33;97748.38;;;9.64;55.59
83492;BME280;73661;56.120;12.302;2024-02-23T04:52:59;97750.88;;;9.43;56.30
83492;BME280;73661;56.120;12.302;2024-02-23T04:55:24;97756.50;;;9.54;55.05
83492;BME280;73661;56.120;12.302;2024-02-23T04:57:50;97755.47;;;9.82;54.81
83492;BME280;73661;56.120;12.302;2024-02-23T05:00:16;97767.84;;;9.77;55.30
83492;BME280;73661;56.120;12.302;2024-02-23T05:02:42;97776.72;;;9.48;55.24
83492;BME280;73661;56.120;12.302;2024-02-23T05:05:08;97763.53;;;9.52;55.71
83492;BME280;73661;56.120;12.302;2024-02-23T05:07:34;97758.88;;;9.84;54.64
83492;BME280;73661;56.120;12.302;2024-02-23T05:10:00;97770.66;;;9.47;54.76
83492;BME280;73661;56.120;12.302;2024-02-23T05:12:26;97768.16;;;9.21;55.16
83492;BME280;73661;56.120;12.302;2024-02-23T05:14:51;97776.56;;;9.04;55.08
83492;BME280;73661;56.120;12.302;2024-02-23T05:17:17;97790.38;;;9.78;53.62
83492;BME280;73661;56.120;12.302;2024-02-23T05:19:43;97794.09;;;9.24;54.81
83492;BME280;73661;56.120;12.302;2024-02-23T05:22:09;97802.19;;;9.40;54.77
83492;BME280;73661;56.120;12.302;2024-02-23T05:24:35;97813.91;;;9.51;53.38
83492;BME280;73661;56.120;12.302;2024-02-23T05:27:00;97810.19;;;9.59;53.11
83492;BME280;73661;56.120;12.302;2024-02-23T05:29:29;97808.81;;;9.48;53.92
83492;BME280;73661;56.120;12.302;2024-02-23T05:31:55;97826.69;;;9.34;53.80
83492;BME280;73661;56.120;12.302;2024-02-23T05:34:21;97813.84;;;9.05;53.86
83492;BME280;73661;56.120;12.302;2024-02-23T05:36:47;97830.72;;;9.18;54.48
83492;BME280;73661;56.120;12.302;2024-02-23T05:39:14;97828.69;;;9.26;53.87
83492;BME280;73661;56.120;12.302;2024-02-23T05:41:43;97832.72;;;9.60;53.63
83492;BME280;73661;56.120;12.302;2024-02-23T05:44:09;97849.19;;;9.35;54.73
83492;BME280;73661;56.120;12.302;2024-02-23T05:46:36;97845.00;;;9.06;54.82
83492;BME280;73661;56.120;12.302;2024-02-23T05:49:03;97854.44;;;9.83;53.35
83492;BME280;73661;56.120;12.302;2024-02-23T05:51:32;97864.25;;;9.75;53.75
83492;BME280;73661;56.120;12.302;2024-02-23T05:53:58;97851.50;;;8.93;55.24
83492;BME280;73661;56.120;12.302;2024-02-23T05:56:24;97856.00;;;9.39;54.26
83492;BME280;73661;56.120;12.302;2024-02-23T05:58:50;97888.94;;;9.40;54.83
83492;BME280;73661;56.120;12.302;2024-02-23T06:01:17;97889.69;;;9.44;54.66
83492;BME280;73661;56.120;12.302;2024-02-23T06:03:44;97904.19;;;10.24;52.99
83492;BME280;73661;56.120;12.302;2024-02-23T06:06:11;97901.38;;;10.05;53.55
83492;BME280;73661;56.120;12.302;2024-02-23T06:08:37;97927.63;;;9.76;54.32
83492;BME280;73661;56.120;12.302;2024-02-23T06:11:03;97922.31;;;9.79;55.05
83492;BME280;73661;56.120;12.302;2024-02-23T06:13:30;97935.41;;;9.77;55.75
83492;BME280;73661;56.120;12.302;2024-02-23T06:15:56;97933.38;;;9.61;55.49
83492;BME280;73661;56.120;12.302;2024-02-23T06:18:21;97952.66;;;10.30;55.80
83492;BME280;73661;56.120;12.302;2024-02-23T06:20:49;97969.69;;;9.39;57.36
83492;BME280;73661;56.120;12.302;2024-02-23T06:23:16;97975.13;;;9.84;56.72
83492;BME280;73661;56.120;12.302;2024-02-23T06:25:42;97959.78;;;10.25;55.71
83492;BME280;73661;56.120;12.302;2024-02-23T06:28:07;97965.69;;;9.80;56.73
83492;BME280;73661;56.120;12.302;2024-02-23T06:30:33;97996.66;;;9.63;56.67
83492;BME280;73661;56.120;12.302;2024-02-23T06:32:59;97996.00;;;10.07;55.18
83492;BME280;73661;56.120;12.302;2024-02-23T06:35:24;97986.75;;;9.47;56.49
83492;BME280;73661;56.120;12.302;2024-02-23T06:37:50;97996.91;;;9.57;55.65
83492;BME280;73661;56.120;12.302;2024-02-23T06:40:16;98010.31;;;9.44;55.70
83492;BME280;73661;56.120;12.302;2024-02-23T06:42:41;98014.41;;;9.78;54.33
83492;BME280;73661;56.120;12.302;2024-02-23T06:45:07;98002.25;;;10.02;54.03
83492;BME280;73661;56.120;12.302;2024-02-23T06:47:33;98027.88;;;9.89;54.06
83492;BME280;73661;56.120;12.302;2024-02-23T06:50:00;98025.56;;;10.06;53.18
83492;BME280;73661;56.120;12.302;2024-02-23T06:52:25;98043.81;;;10.06;54.13
83492;BME280;73661;56.120;12.302;2024-02-23T06:54:54;98054.84;;;9.88;54.23
83492;BME280;73661;56.120;12.302;2024-02-23T06:57:19;98051.03;;;10.25;53.41
83492;BME280;73661;56.120;12.302;2024-02-23T06:59:45;98046.78;;;9.96;54.82
83492;BME280;73661;56.120;12.302;2024-02-23T07:02:11;98057.72;;;9.80;54.79
83492;BME280;73661;56.120;12.302;2024-02-23T07:04:37;98071.50;;;9.84;55.18
83492;BME280;73661;56.120;12.302;2024-02-23T07:07:02;98083.00;;;10.78;53.48
83492;BME280;73661;56.120;12.302;2024-02-23T07:09:34;98081.50;;;9.96;54.56
83492;BME280;73661;56.120;12.302;2024-02-23T07:12:00;98086.19;;;9.87;54.82
83492;BME280;73661;56.120;12.302;2024-02-23T07:14:26;98101.47;;;9.71;54.94
83492;BME280;73661;56.120;12.302;2024-02-23T07:16:52;98100.03;;;9.61;55.53
83492;BME280;73661;56.120;12.302;2024-02-23T07:19:17;98110.94;;;9.45;55.48
83492;BME280;73661;56.120;12.302;2024-02-23T07:21:43;98119.44;;;9.78;55.16
83492;BME280;73661;56.120;12.302;2024-02-23T07:24:09;98134.25;;;10.31;53.97
83492;BME280;73661;56.120;12.302;2024-02-23T07:26:35;98140.56;;;9.41;56.01
83492;BME280;73661;56.120;12.302;2024-02-23T07:29:00;98127.66;;;9.93;55.16
83492;BME280;73661;56.120;12.302;2024-02-23T07:31:26;98169.84;;;9.20;56.57
83492;BME280;73661;56.120;12.302;2024-02-23T07:33:52;98148.69;;;9.87;55.06
83492;BME280;73661;56.120;12.302;2024-02-23T07:36:18;98156.34;;;9.65;55.42
83492;BME280;73661;56.120;12.302;2024-02-23T07:38:44;98173.31;;;10.04;54.37
83492;BME280;73661;56.120;12.302;2024-02-23T07:41:12;98180.22;;;9.49;55.37
83492;BME280;73661;56.120;12.302;2024-02-23T07:43:39;98174.69;;;9.90;54.78
83492;BME280;73661;56.120;12.302;2024-02-23T07:46:05;98190.75;;;10.02;54.61
83492;BME280;73661;56.120;12.302;2024-02-23T07:48:35;98183.56;;;10.10;54.24
83492;BME280;73661;56.120;12.302;2024-02-23T07:51:02;98204.31;;;10.40;53.05
83492;BME280;73661;56.120;12.302;2024-02-23T07:53:28;98211.97;;;10.18;53.31
83492;BME280;73661;56.120;12.302;2024-02-23T07:55:54;98218.63;;;10.00;53.49
83492;BME280;73661;56.120;12.302;2024-02-23T07:58:20;98226.00;;;10.14;53.05
83492;BME280;73661;56.120;12.302;2024-02-23T08:00:48;98220.31;;;9.73;53.06
83492;BME280;73661;56.120;12.302;2024-02-23T08:03:13;98249.16;;;9.97;53.20
83492;BME280;73661;56.120;12.302;2024-02-23T08:05:40;98249.97;;;10.27;52.03
83492;BME280;73661;56.120;12.302;2024-02-23T08:08:05;98244.16;;;9.89;52.76
83492;BME280;73661;56.120;12.302;2024-02-23T08:10:32;98248.59;;;10.14;52.69
83492;BME280;73661;56.120;12.302;2024-02-23T08:12:59;98266.75;;;10.96;51.24
83492;BME280;73661;56.120;12.302;2024-02-23T08:15:25;98272.06;;;10.68;51.67
83492;BME280;73661;56.120;12.302;2024-02-23T08:17:50;98274.59;;;10.71;51.42
83492;BME280;73661;56.120;12.302;2024-02-23T08:20:16;98280.91;;;10.90;50.38
83492;BME280;73661;56.120;12.302;2024-02-23T08:22:42;98286.09;;;11.40;49.68
83492;BME280;73661;56.120;12.302;2024-02-23T08:25:08;98293.91;;;10.92;50.17
83492;BME280;73661;56.120;12.302;2024-02-23T08:27:33;98280.16;;;10.34;51.65
83492;BME280;73661;56.120;12.302;2024-02-23T08:29:59;98302.91;;;10.82;51.05
83492;BME280;73661;56.120;12.302;2024-02-23T08:32:25;98309.69;;;10.05;52.87
83492;BME280;73661;56.120;12.302;2024-02-23T08:34:51;98326.41;;;10.82;51.86
83492;BME280;73661;56.120;12.302;2024-02-23T08:37:18;98334.19;;;10.29;52.98
83492;BME280;73661;56.120;12.302;2024-02-23T08:39:44;98334.03;;;10.88;52.36
83492;BME280;73661;56.120;12.302;2024-02-23T08:42:10;98326.03;;;10.40;52.94
83492;BME280;73661;56.120;12.302;2024-02-23T08:44:36;98331.19;;;10.41;52.85
83492;BME280;73661;56.120;12.302;2024-02-23T08:47:04;98344.19;;;10.71;52.86
83492;BME280;73661;56.120;12.302;2024-02-23T08:49:30;98349.09;;;10.80;52.38
83492;BME280;73661;56.120;12.302;2024-02-23T08:51:56;98356.59;;;10.62;53.82
83492;BME280;73661;56.120;12.302;2024-02-23T08:54:23;98361.59;;;10.70;53.53
83492;BME280;73661;56.120;12.302;2024-02-23T08:56:49;98361.88;;;10.33;53.00
83492;BME280;73661;56.120;12.302;2024-02-23T08:59:15;98380.72;;;10.71;52.71
83492;BME280;73661;56.120;12.302;2024-02-23T09:01:40;98365.34;;;10.88;52.20
83492;BME280;73661;56.120;12.302;2024-02-23T09:04:06;98385.84;;;11.00;52.45
83492;BME280;73661;56.120;12.302;2024-02-23T09:06:32;98395.66;;;10.66;52.70
83492;BME280;73661;56.120;12.302;2024-02-23T09:08:58;98408.97;;;11.62;51.30
83492;BME280;73661;56.120;12.302;2024-02-23T09:11:24;98413.50;;;11.32;51.20
83492;BME280;73661;56.120;12.302;2024-02-23T09:13:49;98427.53;;;11.55;50.83
83492;BME280;73661;56.120;12.302;2024-02-23T09:16:15;98428.84;;;10.60;52.16
83492;BME280;73661;56.120;12.302;2024-02-23T09:18:41;98433.59;;;10.76;52.30
83492;BME280;73661;56.120;12.302;2024-02-23T09:21:07;98447.69;;;10.70;52.49
83492;BME280;73661;56.120;12.302;2024-02-23T09:23:32;98440.00;;;10.66;52.97
83492;BME280;73661;56.120;12.302;2024-02-23T09:25:59;98451.41;;;11.17;51.17
83492;BME280;73661;56.120;12.302;2024-02-23T09:28:25;98461.72;;;10.05;53.53
83492;BME280;73661;56.120;12.302;2024-02-23T09:30:50;98466.59;;;10.18;54.29
83492;BME280;73661;56.120;12.302;2024-02-23T09:33:16;98453.66;;;9.83;54.93
83492;BME280;73661;56.120;12.302;2024-02-23T09:35:42;98475.31;;;10.48;54.45
83492;BME280;73661;56.120;12.302;2024-02-23T09:38:08;98468.28;;;9.88;55.48
83492;BME280;73661;56.120;12.302;2024-02-23T09:40:33;98477.06;;;10.47;54.22
83492;BME280;73661;56.120;12.302;2024-02-23T09:42:59;98477.97;;;10.46;53.55
83492;BME280;73661;56.120;12.302;2024-02-23T09:45:26;98481.81;;;10.64;53.49
83492;BME280;73661;56.120;12.302;2024-02-23T09:47:56;98485.56;;;11.38;51.96
83492;BME280;73661;56.120;12.302;2024-02-23T09:50:23;98483.09;;;10.49;53.56
83492;BME280;73661;56.120;12.302;2024-02-23T09:52:50;98507.47;;;10.48;52.98
83492;BME280;73661;56.120;12.302;2024-02-23T09:55:21;98509.03;;;10.23;54.92
83492;BME280;73661;56.120;12.302;2024-02-23T09:57:49;98528.50;;;10.42;53.99
83492;BME280;73661;56.120;12.302;2024-02-23T10:00:17;98533.41;;;10.82;53.31
83492;BME280;73661;56.120;12.302;2024-02-23T10:02:43;98537.16;;;10.74;53.02
83492;BME280;73661;56.120;12.302;2024-02-23T10:05:14;98543.72;;;10.87;52.78
83492;BME280;73661;56.120;12.302;2024-02-23T10:07:40;98561.44;;;10.77;52.93
83492;BME280;73661;56.120;12.302;2024-02-23T10:10:07;98567.59;;;11.04;52.20
83492;BME280;73661;56.120;12.302;2024-02-23T10:12:34;98575.78;;;11.20;51.45
83492;BME280;73661;56.120;12.302;2024-02-23T10:15:02;98584.34;;;11.53;51.71
83492;BME280;73661;56.120;12.302;2024-02-23T10:17:30;98583.13;;;11.91;50.96
83492;BME280;73661;56.120;12.302;2024-02-23T10:19:56;98593.50;;;12.19;50.36
83492;BME280;73661;56.120;12.302;2024-02-23T10:22:23;98608.28;;;11.11;51.65
83492;BME280;73661;56.120;12.302;2024-02-23T10:24:53;98620.94;;;10.64;52.65
83492;BME280;73661;56.120;12.302;2024-02-23T10:27:21;98633.41;;;10.53;53.36
83492;BME280;73661;56.120;12.302;2024-02-23T10:29:50;98619.59;;;10.81;52.03
83492;BME280;73661;56.120;12.302;2024-02-23T10:32:19;98638.63;;;10.53;53.13
83492;BME280;73661;56.120;12.302;2024-02-23T10:34:48;98661.75;;;11.57;51.85
83492;BME280;73661;56.120;12.302;2024-02-23T10:37:17;98644.19;;;10.40;53.96
83492;BME280;73661;56.120;12.302;2024-02-23T10:39:45;98664.75;;;10.83;54.71
83492;BME280;73661;56.120;12.302;2024-02-23T10:42:12;98678.03;;;10.75;55.08
83492;BME280;73661;56.120;12.302;2024-02-23T10:44:39;98683.69;;;10.26;55.99
83492;BME280;73661;56.120;12.302;2024-02-23T10:47:06;98682.47;;;10.72;55.55
83492;BME280;73661;56.120;12.302;2024-02-23T10:49:33;98686.38;;;10.88;54.97
83492;BME280;73661;56.120;12.302;2024-02-23T10:52:01;98693.16;;;10.62;53.93
83492;BME280;73661;56.120;12.302;2024-02-23T10:54:28;98706.06;;;11.60;51.92
83492;BME280;73661;56.120;12.302;2024-02-23T10:56:56;98710.31;;;11.64;51.91
83492;BME280;73661;56.120;12.302;2024-02-23T10:59:22;98708.66;;;11.90;51.26
83492;BME280;73661;56.120;12.302;2024-02-23T11:01:50;98710.72;;;11.51;52.89
83492;BME280;73661;56.120;12.302;2024-02-23T11:04:19;98697.66;;;10.88;53.83
83492;BME280;73661;56.120;12.302;2024-02-23T11:06:52;98712.38;;;11.53;52.60
83492;BME280;73661;56.120;12.302;2024-02-23T11:09:21;98721.53;;;12.75;49.63
83492;BME280;73661;56.120;12.302;2024-02-23T11:11:54;98741.22;;;13.12;49.54
83492;BME280;73661;56.120;12.302;2024-02-23T11:14:34;98738.06;;;12.77;48.74
83492;BME280;73661;56.120;12.302;2024-02-23T11:17:01;98739.75;;;12.53;48.53
83492;BME280;73661;56.120;12.302;2024-02-23T11:19:39;98743.56;;;12.95;47.28
83492;BME280;73661;56.120;12.302;2024-02-23T11:22:10;98763.13;;;13.81;46.63
83492;BME280;73661;56.120;12.302;2024-02-23T11:24:43;98763.56;;;12.97;47.15
83492;BME280;73661;56.120;12.302;2024-02-23T11:27:15;98775.81;;;12.17;48.08
83492;BME280;73661;56.120;12.302;2024-02-23T11:29:45;98759.16;;;12.73;47.07
83492;BME280;73661;56.120;12.302;2024-02-23T11:32:17;98777.22;;;11.39;50.06
83492;BME280;73661;56.120;12.302;2024-02-23T11:34:58;98828.41;;;11.77;50.97
83492;BME280;73661;56.120;12.302;2024-02-23T11:37:30;98817.03;;;9.24;56.58
83492;BME280;73661;56.120;12.302;2024-02-23T11:39:56;98835.22;;;9.69;55.69
83492;BME280;73661;56.120;12.302;2024-02-23T11:42:23;98853.56;;;9.63;57.65
83492;BME280;73661;56.120;12.302;2024-02-23T11:44:50;98834.91;;;9.84;57.71
83492;BME280;73661;56.120;12.302;2024-02-23T11:47:19;98834.09;;;8.91;60.39
83492;BME280;73661;56.120;12.302;2024-02-23T11:49:45;98843.22;;;9.60;60.09
83492;BME280;73661;56.120;12.302;2024-02-23T11:52:11;98841.13;;;9.34;60.94
83492;BME280;73661;56.120;12.302;2024-02-23T11:54:37;98832.25;;;9.87;60.50
83492;BME280;73661;56.120;12.302;2024-02-23T11:57:03;98837.34;;;10.71;58.39
83492;BME280;73661;56.120;12.302;2024-02-23T11:59:29;98836.81;;;10.18;60.24
83492;BME280;73661;56.120;12.302;2024-02-23T12:01:55;98830.47;;;11.01;59.19
83492;BME280;73661;56.120;12.302;2024-02-23T12:04:20;98834.13;;;10.59;57.69
83492;BME280;73661;56.120;12.302;2024-02-23T12:06:47;98840.03;;;10.66;56.52
83492;BME280;73661;56.120;12.302;2024-02-23T12:09:14;98852.84;;;10.40;56.79
83492;BME280;73661;56.120;12.302;2024-02-23T12:11:40;98851.19;;;10.35;56.95
83492;BME280;73661;56.120;12.302;2024-02-23T12:14:06;98858.97;;;10.39;56.52
83492;BME280;73661;56.120;12.302;2024-02-23T12:16:35;98867.09;;;10.63;55.26
83492;BME280;73661;56.120;12.302;2024-02-23T12:19:04;98873.31;;;10.18;56.96
83492;BME280;73661;56.120;12.302;2024-02-23T12:21:30;98860.25;;;10.58;56.65
83492;BME280;73661;56.120;12.302;2024-02-23T12:23:55;98872.97;;;11.72;55.57
83492;BME280;73661;56.120;12.302;2024-02-23T12:26:21;98863.66;;;11.30;54.82
83492;BME280;73661;56.120;12.302;2024-02-23T12:28:47;98886.63;;;11.50;54.99
83492;BME280;73661;56.120;12.302;2024-02-23T12:31:13;98898.59;;;12.50;52.82
83492;BME280;73661;56.120;12.302;2024-02-23T12:33:40;98895.19;;;11.24;53.47
83492;BME280;73661;56.120;12.302;2024-02-23T12:36:08;98886.13;;;11.37;54.16
83492;BME280;73661;56.120;12.302;2024-02-23T12:38:35;98907.91;;;11.36;54.31
83492;BME280;73661;56.120;12.302;2024-02-23T12:41:01;98914.47;;;11.85;53.37
83492;BME280;73661;56.120;12.302;2024-02-23T12:43:28;98915.66;;;13.18;51.64
83492;BME280;73661;56.120;12.302;2024-02-23T12:45:56;98920.78;;;12.66;51.76
83492;BME280;73661;56.120;12.302;2024-02-23T12:48:22;98927.63;;;12.42;50.53